createdAt,value
2019-05-01T00:01:40.738Z,9.80
2019-05-01T00:04:35.795Z,9.90
2019-05-01T00:07:26.211Z,10.00
2019-05-01T00:10:11.531Z,10.10
2019-05-01T00:12:56.297Z,10.10
2019-05-01T00:15:41.903Z,10.20
2019-05-01T00:18:28.089Z,10.20
2019-05-01T00:21:13.572Z,10.20
2019-05-01T00:23:58.594Z,10.10
2019-05-01T00:26:43.906Z,10.00
2019-05-01T00:29:29.478Z,10.00
2019-05-01T00:32:14.618Z,10.10
2019-05-01T00:34:59.690Z,10.10
2019-05-01T00:37:44.870Z,10.10
2019-05-01T00:40:30.350Z,10.10
2019-05-01T00:43:15.822Z,10.10
2019-05-01T00:46:01.091Z,10.00
2019-05-01T00:48:46.150Z,9.90
2019-05-01T00:51:31.485Z,9.90
2019-05-01T00:54:16.320Z,9.80
2019-05-01T00:57:11.886Z,9.80
2019-05-01T01:00:20.554Z,9.80
2019-05-01T01:03:06.166Z,9.90
2019-05-01T01:05:51.639Z,10.00
2019-05-01T01:08:36.654Z,10.10
2019-05-01T01:11:21.890Z,10.20
2019-05-01T01:14:08.086Z,10.20
2019-05-01T01:16:53.264Z,10.20
2019-05-01T01:19:38.802Z,10.30
2019-05-01T01:22:23.469Z,10.30
2019-05-01T01:25:08.610Z,10.30
2019-05-01T01:27:53.499Z,10.30
2019-05-01T01:30:38.398Z,10.30
2019-05-01T01:33:23.576Z,10.30
2019-05-01T01:36:08.882Z,10.40
2019-05-01T01:38:54.823Z,10.30
2019-05-01T01:41:40.018Z,10.30
2019-05-01T01:44:37.050Z,10.30
2019-05-01T01:47:22.850Z,10.30
2019-05-01T01:50:08.182Z,10.30
2019-05-01T01:52:53.046Z,10.30
2019-05-01T01:55:38.353Z,10.30
2019-05-01T01:58:23.477Z,10.40
2019-05-01T02:01:27.630Z,10.40
2019-05-01T02:04:22.486Z,10.40
2019-05-01T02:07:07.873Z,10.40
2019-05-01T02:09:52.970Z,10.40
2019-05-01T02:12:37.738Z,10.40
2019-05-01T02:15:22.863Z,10.40
2019-05-01T02:18:08.170Z,10.40
2019-05-01T02:20:53.609Z,10.40
2019-05-01T02:23:38.758Z,10.50
2019-05-01T02:26:26.662Z,10.40
2019-05-01T02:29:19.877Z,10.40
2019-05-01T02:32:05.125Z,10.30
2019-05-01T02:34:50.280Z,10.30
2019-05-01T02:37:35.759Z,10.30
2019-05-01T02:40:38.342Z,10.20
2019-05-01T02:43:23.302Z,10.20
2019-05-01T02:46:08.451Z,10.10
2019-05-01T02:48:56.395Z,10.10
2019-05-01T02:51:41.578Z,10.10
2019-05-01T02:54:26.538Z,10.00
2019-05-01T02:57:13.211Z,10.00
2019-05-01T02:59:58.550Z,9.90
2019-05-01T03:02:44.146Z,9.80
2019-05-01T03:05:29.327Z,9.80
2019-05-01T03:08:14.667Z,9.80
2019-05-01T03:10:59.986Z,9.70
2019-05-01T03:13:45.387Z,9.60
2019-05-01T03:16:30.505Z,9.50
2019-05-01T03:19:34.938Z,9.40
2019-05-01T03:22:29.819Z,9.40
2019-05-01T03:25:14.962Z,9.30
2019-05-01T03:28:00.442Z,9.30
2019-05-01T03:30:45.880Z,9.30
2019-05-01T03:33:31.289Z,9.30
2019-05-01T03:36:16.116Z,9.20
2019-05-01T03:39:01.478Z,9.10
2019-05-01T03:41:46.710Z,9.10
2019-05-01T03:44:32.161Z,9.00
2019-05-01T03:47:17.515Z,9.00
2019-05-01T03:50:02.696Z,8.90
2019-05-01T03:52:47.795Z,8.90
2019-05-01T03:55:32.924Z,8.80
2019-05-01T03:58:18.028Z,8.80
2019-05-01T04:01:16.650Z,8.80
2019-05-01T04:04:05.617Z,8.80
2019-05-01T04:06:50.751Z,8.70
2019-05-01T04:09:35.760Z,8.70
2019-05-01T04:12:21.422Z,8.70
2019-05-01T04:15:06.302Z,8.70
2019-05-01T04:17:54.524Z,8.80
2019-05-01T04:20:40.195Z,8.70
2019-05-01T04:23:25.464Z,8.80
2019-05-01T04:26:11.038Z,8.80
2019-05-01T04:29:16.367Z,8.80
2019-05-01T04:32:05.439Z,8.80
2019-05-01T04:34:58.045Z,8.80
2019-05-01T04:37:43.232Z,8.80
2019-05-01T04:40:28.183Z,8.90
2019-05-01T04:43:14.085Z,8.90
2019-05-01T04:45:58.919Z,8.90
2019-05-01T04:48:43.947Z,9.00
2019-05-01T04:51:29.270Z,9.00
2019-05-01T04:54:14.534Z,9.10
2019-05-01T04:56:59.659Z,9.10
2019-05-01T04:59:44.942Z,9.10
2019-05-01T05:02:37.077Z,9.10
2019-05-01T05:05:22.262Z,9.10
2019-05-01T05:08:07.937Z,9.10
2019-05-01T05:10:54.947Z,9.10
2019-05-01T05:14:02.437Z,9.10
2019-05-01T05:16:54.242Z,9.10
2019-05-01T05:19:39.318Z,9.20
2019-05-01T05:22:24.547Z,9.20
2019-05-01T05:25:09.852Z,9.30
2019-05-01T05:27:54.815Z,9.30
2019-05-01T05:30:41.002Z,9.30
2019-05-01T05:33:26.126Z,9.20
2019-05-01T05:36:11.546Z,9.20
2019-05-01T05:39:07.126Z,9.20
2019-05-01T05:41:51.826Z,9.20
2019-05-01T05:44:37.162Z,9.20
2019-05-01T05:47:22.274Z,9.20
2019-05-01T05:50:08.521Z,9.30
2019-05-01T05:52:56.358Z,9.30
2019-05-01T05:55:45.909Z,9.40
2019-05-01T05:58:41.731Z,9.50
2019-05-01T06:01:56.053Z,9.70
2019-05-01T06:04:50.640Z,9.80
2019-05-01T06:07:43.690Z,9.80
2019-05-01T06:10:44.505Z,9.80
2019-05-01T06:13:48.523Z,9.90
2019-05-01T06:16:46.927Z,10.00
2019-05-01T06:19:36.065Z,10.10
2019-05-01T06:22:34.083Z,10.20
2019-05-01T06:25:25.276Z,10.30
2019-05-01T06:28:10.413Z,10.50
2019-05-01T06:31:17.726Z,10.70
2019-05-01T06:34:03.083Z,10.80
2019-05-01T06:36:49.728Z,10.90
2019-05-01T06:39:35.912Z,10.80
2019-05-01T06:42:21.419Z,10.80
2019-05-01T06:45:13.010Z,10.80
2019-05-01T06:48:01.886Z,10.90
2019-05-01T06:50:52.947Z,10.90
2019-05-01T06:53:39.999Z,11.00
2019-05-01T06:56:26.030Z,11.20
2019-05-01T06:59:11.606Z,11.30
2019-05-01T07:01:58.358Z,11.20
2019-05-01T07:04:43.881Z,11.10
2019-05-01T07:07:28.746Z,11.10
2019-05-01T07:10:13.630Z,11.10
2019-05-01T07:12:59.793Z,11.30
2019-05-01T07:15:45.390Z,11.40
2019-05-01T07:18:30.438Z,11.50
2019-05-01T07:21:15.582Z,11.60
2019-05-01T07:24:00.421Z,11.90
2019-05-01T07:26:47.990Z,12.10
2019-05-01T07:29:34.370Z,12.30
2019-05-01T07:32:19.774Z,13.60
2019-05-01T07:35:04.835Z,15.40
2019-05-01T07:37:49.876Z,15.90
2019-05-01T07:40:35.450Z,15.90
2019-05-01T07:43:26.955Z,15.80
2019-05-01T07:46:48.810Z,16.40
2019-05-01T07:49:52.736Z,17.50
2019-05-01T07:52:36.794Z,19.00
2019-05-01T07:55:37.727Z,19.40
2019-05-01T07:58:23.094Z,19.00
2019-05-01T08:01:18.100Z,19.30
2019-05-01T08:04:00.035Z,20.00
2019-05-01T08:06:45.553Z,20.50
2019-05-01T08:09:30.926Z,21.20
2019-05-01T08:12:19.000Z,21.60
2019-05-01T08:15:03.518Z,22.00
2019-05-01T08:17:53.103Z,23.00
2019-05-01T08:20:39.445Z,22.70
2019-05-01T08:23:24.252Z,21.70
2019-05-01T08:26:10.311Z,20.50
2019-05-01T08:29:15.441Z,20.90
2019-05-01T08:32:39.179Z,21.80
2019-05-01T08:35:26.906Z,22.90
2019-05-01T08:38:12.260Z,23.50
2019-05-01T08:40:57.666Z,23.50
2019-05-01T08:43:42.941Z,23.00
2019-05-01T08:46:39.541Z,22.40
2019-05-01T08:49:30.959Z,21.90
2019-05-01T08:52:16.634Z,23.00
2019-05-01T08:55:04.438Z,24.00
2019-05-01T08:57:48.832Z,25.50
2019-05-01T09:00:36.409Z,26.20
2019-05-01T09:03:23.687Z,25.40
2019-05-01T09:06:09.122Z,24.20
2019-05-01T09:08:54.690Z,23.80
2019-05-01T09:11:39.735Z,23.90
2019-05-01T09:14:24.923Z,23.30
2019-05-01T09:17:11.218Z,23.80
2019-05-01T09:19:56.146Z,23.90
2019-05-01T09:22:41.559Z,24.20
2019-05-01T09:25:39.474Z,24.90
2019-05-01T09:28:28.923Z,25.00
2019-05-01T09:31:14.808Z,25.70
2019-05-01T09:34:00.001Z,26.00
2019-05-01T09:36:45.150Z,26.50
2019-05-01T09:39:31.618Z,26.70
2019-05-01T09:42:22.681Z,27.20
2019-05-01T09:45:04.099Z,27.90
2019-05-01T09:47:49.546Z,28.20
2019-05-01T09:50:38.084Z,27.70
2019-05-01T09:53:42.682Z,28.20
2019-05-01T09:56:28.197Z,29.30
2019-05-01T09:59:17.481Z,30.30
2019-05-01T10:02:02.954Z,31.10
2019-05-01T10:04:47.995Z,31.40
2019-05-01T10:07:33.334Z,31.50
2019-05-01T10:10:18.506Z,31.50
2019-05-01T10:13:04.022Z,31.90
2019-05-01T10:15:49.537Z,29.90
2019-05-01T10:18:35.260Z,29.20
2019-05-01T10:21:22.518Z,29.40
2019-05-01T10:24:07.645Z,29.50
2019-05-01T10:26:55.101Z,30.20
2019-05-01T10:30:03.011Z,30.20
2019-05-01T10:32:57.889Z,31.40
2019-05-01T10:36:17.880Z,32.10
2019-05-01T10:38:56.481Z,32.50
2019-05-01T10:41:46.137Z,32.90
2019-05-01T10:44:29.066Z,33.60
2019-05-01T10:47:14.338Z,33.70
2019-05-01T10:49:59.302Z,32.90
2019-05-01T10:52:45.079Z,32.50
2019-05-01T10:55:30.482Z,33.20
2019-05-01T10:58:18.265Z,32.70
2019-05-01T11:01:20.434Z,33.40
2019-05-01T11:04:05.902Z,32.80
2019-05-01T11:06:51.916Z,32.50
2019-05-01T11:09:37.271Z,33.00
2019-05-01T11:12:22.536Z,33.80
2019-05-01T11:15:07.621Z,35.40
2019-05-01T11:17:52.586Z,35.40
2019-05-01T11:20:37.622Z,34.70
2019-05-01T11:23:23.303Z,34.00
2019-05-01T11:26:08.674Z,34.50
2019-05-01T11:28:53.902Z,34.90
2019-05-01T11:31:51.822Z,34.40
2019-05-01T11:34:45.250Z,35.00
2019-05-01T11:37:44.217Z,36.10
2019-05-01T11:40:35.558Z,36.80
2019-05-01T11:43:20.711Z,37.80
2019-05-01T11:46:05.973Z,38.00
2019-05-01T11:48:50.755Z,37.70
2019-05-01T11:51:36.419Z,36.40
2019-05-01T11:54:21.422Z,34.10
2019-05-01T11:57:06.746Z,34.00
2019-05-01T11:59:52.217Z,34.70
2019-05-01T12:02:37.339Z,33.90
2019-05-01T12:05:22.080Z,34.10
2019-05-01T12:08:06.915Z,33.80
2019-05-01T12:10:52.034Z,33.80
2019-05-01T12:13:43.450Z,33.80
2019-05-01T12:16:42.970Z,34.50
2019-05-01T12:19:28.590Z,33.80
2019-05-01T12:22:13.818Z,33.50
2019-05-01T12:24:59.662Z,33.50
2019-05-01T12:27:44.968Z,33.90
2019-05-01T12:30:30.455Z,33.90
2019-05-01T12:33:15.511Z,34.30
2019-05-01T12:36:02.090Z,33.10
2019-05-01T12:38:47.374Z,30.40
2019-05-01T12:41:40.500Z,28.20
2019-05-01T12:44:25.599Z,26.50
2019-05-01T12:47:18.761Z,25.10
2019-05-01T12:50:04.176Z,24.70
2019-05-01T12:53:07.442Z,23.70
2019-05-01T12:56:15.171Z,23.10
2019-05-01T12:59:00.850Z,22.70
2019-05-01T13:01:46.027Z,22.80
2019-05-01T13:04:32.294Z,24.50
2019-05-01T13:07:17.696Z,24.70
2019-05-01T13:10:03.066Z,24.10
2019-05-01T13:12:48.217Z,23.10
2019-05-01T13:15:33.559Z,22.20
2019-05-01T13:18:18.419Z,21.80
2019-05-01T13:21:03.299Z,21.40
2019-05-01T13:23:48.514Z,21.00
2019-05-01T13:26:42.140Z,20.80
2019-05-01T13:29:49.442Z,20.90
2019-05-01T13:32:42.274Z,21.10
2019-05-01T13:35:30.472Z,21.20
2019-05-01T13:38:14.743Z,21.50
2019-05-01T13:40:59.720Z,21.80
2019-05-01T13:43:44.982Z,21.30
2019-05-01T13:46:30.173Z,21.00
2019-05-01T13:49:14.910Z,21.30
2019-05-01T13:51:59.687Z,21.30
2019-05-01T13:54:44.779Z,22.10
2019-05-01T13:57:30.079Z,22.10
2019-05-01T14:00:17.601Z,22.20
2019-05-01T14:03:02.503Z,22.10
2019-05-01T14:05:47.715Z,22.10
2019-05-01T14:08:33.198Z,22.10
2019-05-01T14:11:18.071Z,22.10
2019-05-01T14:14:03.226Z,22.50
2019-05-01T14:16:48.319Z,23.70
2019-05-01T14:19:34.678Z,24.90
2019-05-01T14:22:35.205Z,26.10
2019-05-01T14:25:20.582Z,26.60
2019-05-01T14:28:05.932Z,27.30
2019-05-01T14:30:51.105Z,27.80
2019-05-01T14:33:37.305Z,27.80
2019-05-01T14:36:22.495Z,27.70
2019-05-01T14:39:07.602Z,28.00
2019-05-01T14:41:52.379Z,27.80
2019-05-01T14:44:37.302Z,27.10
2019-05-01T14:47:22.708Z,26.00
2019-05-01T14:50:07.797Z,25.70
2019-05-01T14:52:53.266Z,25.00
2019-05-01T14:55:38.450Z,24.00
2019-05-01T14:58:23.420Z,23.20
2019-05-01T15:01:08.442Z,23.10
2019-05-01T15:03:53.522Z,23.50
2019-05-01T15:06:38.574Z,24.20
2019-05-01T15:09:23.750Z,24.40
2019-05-01T15:12:09.342Z,25.00
2019-05-01T15:15:04.626Z,25.70
2019-05-01T15:18:04.022Z,25.70
2019-05-01T15:20:49.203Z,24.70
2019-05-01T15:23:35.607Z,24.10
2019-05-01T15:26:23.409Z,23.80
2019-05-01T15:29:08.982Z,22.80
2019-05-01T15:31:54.531Z,21.70
2019-05-01T15:34:39.424Z,21.20
2019-05-01T15:37:24.371Z,21.30
2019-05-01T15:40:16.486Z,21.60
2019-05-01T15:43:13.198Z,21.40
2019-05-01T15:45:58.562Z,21.00
2019-05-01T15:48:43.384Z,20.90
2019-05-01T15:51:28.350Z,20.50
2019-05-01T15:54:13.557Z,20.30
2019-05-01T15:56:58.814Z,20.30
2019-05-01T15:59:45.010Z,20.40
2019-05-01T16:02:30.623Z,20.00
2019-05-01T16:05:16.774Z,19.70
2019-05-01T16:08:09.505Z,19.30
2019-05-01T16:11:07.036Z,19.10
2019-05-01T16:13:53.161Z,18.90
2019-05-01T16:16:39.166Z,19.00
2019-05-01T16:19:24.758Z,18.90
2019-05-01T16:22:09.714Z,18.90
2019-05-01T16:24:55.191Z,18.80
2019-05-01T16:27:40.747Z,18.70
2019-05-01T16:30:26.718Z,18.70
2019-05-01T16:33:11.924Z,18.70
2019-05-01T16:35:56.994Z,18.70
2019-05-01T16:39:10.748Z,18.80
2019-05-01T16:41:55.833Z,19.00
2019-05-01T16:44:40.870Z,19.00
2019-05-01T16:47:26.518Z,18.90
2019-05-01T16:50:11.478Z,18.90
2019-05-01T16:52:57.253Z,18.90
2019-05-01T16:55:42.786Z,19.00
2019-05-01T16:58:28.511Z,19.00
2019-05-01T17:01:38.130Z,18.90
2019-05-01T17:04:30.803Z,18.90
2019-05-01T17:07:26.244Z,18.70
2019-05-01T17:10:17.042Z,18.50
2019-05-01T17:13:03.362Z,18.20
2019-05-01T17:15:50.018Z,18.00
2019-05-01T17:18:34.935Z,17.80
2019-05-01T17:21:20.198Z,17.80
2019-05-01T17:24:05.567Z,17.90
2019-05-01T17:26:50.777Z,18.00
2019-05-01T17:29:35.882Z,18.00
2019-05-01T17:32:21.371Z,17.90
2019-05-01T17:35:07.960Z,17.60
2019-05-01T17:37:53.869Z,17.40
2019-05-01T17:40:38.647Z,17.10
2019-05-01T17:43:24.055Z,17.00
2019-05-01T17:46:10.689Z,16.70
2019-05-01T17:48:56.786Z,16.50
2019-05-01T17:51:42.732Z,16.30
2019-05-01T17:54:29.054Z,16.00
2019-05-01T17:57:14.027Z,15.70
2019-05-01T18:00:01.386Z,15.50
2019-05-01T18:02:57.035Z,15.30
2019-05-01T18:06:05.243Z,15.20
2019-05-01T18:09:02.463Z,15.10
2019-05-01T18:11:37.746Z,15.00
2019-05-01T18:14:23.166Z,15.00
2019-05-01T18:17:08.498Z,14.90
2019-05-01T18:19:53.914Z,14.80
2019-05-01T18:23:17.466Z,14.70
2019-05-01T18:26:09.935Z,14.60
2019-05-01T18:29:27.298Z,14.40
2019-05-01T18:32:17.022Z,14.30
2019-05-01T18:35:01.905Z,14.00
2019-05-01T18:37:58.657Z,13.80
2019-05-01T18:40:49.152Z,13.60
2019-05-01T18:43:34.539Z,13.50
2019-05-01T18:46:19.893Z,13.30
2019-05-01T18:49:05.955Z,13.20
2019-05-01T18:51:51.251Z,13.00
2019-05-01T18:54:36.616Z,12.90
2019-05-01T18:57:22.502Z,12.70
2019-05-01T19:00:07.878Z,12.60
2019-05-01T19:02:53.554Z,12.50
2019-05-01T19:05:38.561Z,12.40
2019-05-01T19:08:23.810Z,12.40
2019-05-01T19:11:12.579Z,12.40
2019-05-01T19:13:56.214Z,12.50
2019-05-01T19:16:45.210Z,12.60
2019-05-01T19:19:29.318Z,12.60
2019-05-01T19:22:14.630Z,12.50
2019-05-01T19:25:00.126Z,12.40
2019-05-01T19:27:45.425Z,12.30
2019-05-01T19:30:30.278Z,12.20
2019-05-01T19:33:15.122Z,12.10
2019-05-01T19:36:02.545Z,12.10
2019-05-01T19:38:48.098Z,12.00
2019-05-01T19:41:33.322Z,12.00
2019-05-01T19:44:20.079Z,12.00
2019-05-01T19:47:07.750Z,12.00
2019-05-01T19:49:54.674Z,11.90
2019-05-01T19:52:40.386Z,11.90
2019-05-01T19:55:25.638Z,11.80
2019-05-01T19:58:10.918Z,11.70
2019-05-01T20:00:57.410Z,11.60
2019-05-01T20:03:42.889Z,11.60
2019-05-01T20:06:28.658Z,11.50
2019-05-01T20:09:13.958Z,11.50
2019-05-01T20:11:59.299Z,11.50
2019-05-01T20:14:44.458Z,11.40
2019-05-01T20:17:30.038Z,11.40
2019-05-01T20:20:16.002Z,11.40
2019-05-01T20:23:01.498Z,11.30
2019-05-01T20:25:46.510Z,11.30
2019-05-01T20:28:32.038Z,11.20
2019-05-01T20:31:17.925Z,11.20
2019-05-01T20:34:04.032Z,11.20
2019-05-01T20:36:49.220Z,11.20
2019-05-01T20:39:34.587Z,11.10
2019-05-01T20:42:20.582Z,11.10
2019-05-01T20:45:12.855Z,11.20
2019-05-01T20:47:54.386Z,11.20
2019-05-01T20:50:39.643Z,11.20
2019-05-01T20:53:24.858Z,11.10
2019-05-01T20:56:18.226Z,11.10
2019-05-01T20:59:04.903Z,11.10
2019-05-01T21:01:49.785Z,11.10
2019-05-01T21:04:45.506Z,11.10
2019-05-01T21:07:34.051Z,11.10
2019-05-01T21:10:25.027Z,11.00
2019-05-01T21:13:08.258Z,11.00
2019-05-01T21:15:56.439Z,11.00
2019-05-01T21:18:40.452Z,10.90
2019-05-01T21:21:25.703Z,10.80
2019-05-01T21:24:10.858Z,10.80
2019-05-01T21:26:56.358Z,10.70
2019-05-01T21:29:41.637Z,10.70
2019-05-01T21:32:27.661Z,10.60
2019-05-01T21:35:13.793Z,10.60
2019-05-01T21:37:58.890Z,10.60
2019-05-01T21:40:44.014Z,10.60
2019-05-01T21:43:33.134Z,10.60
2019-05-01T21:46:16.679Z,10.50
2019-05-01T21:49:02.661Z,10.50
2019-05-01T21:51:48.074Z,10.40
2019-05-01T21:54:33.749Z,10.30
2019-05-01T21:57:19.218Z,10.30
2019-05-01T22:00:05.700Z,10.20
2019-05-01T22:02:51.342Z,10.20
2019-05-01T22:05:39.745Z,10.20
2019-05-01T22:08:24.105Z,10.10
2019-05-01T22:11:09.974Z,10.00
2019-05-01T22:13:59.930Z,10.00
2019-05-01T22:16:42.145Z,10.00
2019-05-01T22:19:27.933Z,9.90
2019-05-01T22:22:31.102Z,9.80
2019-05-01T22:25:22.631Z,9.70
2019-05-01T22:28:33.402Z,9.70
2019-05-01T22:31:32.350Z,9.70
2019-05-01T22:34:35.527Z,9.60
2019-05-01T22:37:20.398Z,9.50
2019-05-01T22:40:08.381Z,9.50
2019-05-01T22:42:53.671Z,9.50
2019-05-01T22:45:38.715Z,9.50
2019-05-01T22:48:24.251Z,9.50
2019-05-01T22:51:18.703Z,9.40
2019-05-01T22:54:03.610Z,9.40
2019-05-01T22:56:49.038Z,9.30
2019-05-01T22:59:34.199Z,9.20
2019-05-01T23:02:29.602Z,9.20
2019-05-01T23:05:14.770Z,9.20
2019-05-01T23:07:59.505Z,9.20
2019-05-01T23:10:46.901Z,9.20
2019-05-01T23:13:31.906Z,9.20
2019-05-01T23:16:19.241Z,9.10
2019-05-01T23:19:04.082Z,9.00
2019-05-01T23:21:51.024Z,9.10
2019-05-01T23:24:37.078Z,9.00
2019-05-01T23:27:24.414Z,9.00
2019-05-01T23:30:09.783Z,9.00
2019-05-01T23:32:55.135Z,8.90
2019-05-01T23:35:40.113Z,8.80
2019-05-01T23:38:25.020Z,8.80
2019-05-01T23:41:09.876Z,8.80
2019-05-01T23:43:58.170Z,8.70
2019-05-01T23:46:42.899Z,8.50
2019-05-01T23:49:27.621Z,8.40
2019-05-01T23:52:12.556Z,8.40
2019-05-01T23:54:57.407Z,8.30
2019-05-01T23:57:42.294Z,8.30
